sensor_id;sensor_type;location;lat;lon;timestamp;temperature;humidity
14378;DHT22;7272;53.668;9.578;2023-09-30T00:00:23;14.80;99.90
14378;DHT22;7272;53.668;9.578;2023-09-30T00:03:24;14.80;99.90
14378;DHT22;7272;53.668;9.578;2023-09-30T00:06:25;15.00;99.90
14378;DHT22;7272;53.668;9.578;2023-09-30T00:09:27;15.00;99.90
14378;DHT22;7272;53.668;9.578;2023-09-30T00:12:28;15.00;99.90
14378;DHT22;7272;53.668;9.578;2023-09-30T00:15:29;15.00;99.90
14378;DHT22;7272;53.668;9.578;2023-09-30T00:18:31;15.10;99.90
14378;DHT22;7272;53.668;9.578;2023-09-30T00:21:32;15.10;99.90
14378;DHT22;7272;53.668;9.578;2023-09-30T00:24:34;15.10;99.90
14378;DHT22;7272;53.668;9.578;2023-09-30T00:27:35;15.10;99.90
14378;DHT22;7272;53.668;9.578;2023-09-30T00:30:36;15.10;99.90
14378;DHT22;7272;53.668;9.578;2023-09-30T00:33:39;15.10;99.90
14378;DHT22;7272;53.668;9.578;2023-09-30T00:36:40;15.00;99.90
14378;DHT22;7272;53.668;9.578;2023-09-30T00:39:42;15.00;99.90
14378;DHT22;7272;53.668;9.578;2023-09-30T00:42:45;15.00;99.90
14378;DHT22;7272;53.668;9.578;2023-09-30T00:45:48;15.10;99.90
14378;DHT22;7272;53.668;9.578;2023-09-30T00:48:49;15.00;99.90
14378;DHT22;7272;53.668;9.578;2023-09-30T00:51:51;15.20;99.90
14378;DHT22;7272;53.668;9.578;2023-09-30T00:54:53;15.10;99.90
14378;DHT22;7272;53.668;9.578;2023-09-30T00:57:55;15.00;99.90
14378;DHT22;7272;53.668;9.578;2023-09-30T01:00:57;15.00;99.90
14378;DHT22;7272;53.668;9.578;2023-09-30T01:03:59;14.90;99.90
14378;DHT22;7272;53.668;9.578;2023-09-30T01:07:01;14.90;99.90
14378;DHT22;7272;53.668;9.578;2023-09-30T01:10:03;14.90;99.90
14378;DHT22;7272;53.668;9.578;2023-09-30T01:13:05;15.00;99.90
14378;DHT22;7272;53.668;9.578;2023-09-30T01:16:07;14.90;99.90
14378;DHT22;7272;53.668;9.578;2023-09-30T01:19:10;14.90;99.90
14378;DHT22;7272;53.668;9.578;2023-09-30T01:22:12;14.80;99.90
14378;DHT22;7272;53.668;9.578;2023-09-30T01:25:13;14.80;99.90
14378;DHT22;7272;53.668;9.578;2023-09-30T01:28:14;14.70;99.90
14378;DHT22;7272;53.668;9.578;2023-09-30T01:31:18;14.70;99.90
14378;DHT22;7272;53.668;9.578;2023-09-30T01:34:19;14.60;99.90
14378;DHT22;7272;53.668;9.578;2023-09-30T01:37:21;14.60;99.90
14378;DHT22;7272;53.668;9.578;2023-09-30T01:40:22;14.60;99.90
14378;DHT22;7272;53.668;9.578;2023-09-30T01:43:23;14.50;99.90
14378;DHT22;7272;53.668;9.578;2023-09-30T01:46:24;14.50;99.90
14378;DHT22;7272;53.668;9.578;2023-09-30T01:49:26;14.50;99.90
14378;DHT22;7272;53.668;9.578;2023-09-30T01:52:29;14.40;99.90
14378;DHT22;7272;53.668;9.578;2023-09-30T01:55:31;14.40;99.90
14378;DHT22;7272;53.668;9.578;2023-09-30T01:58:32;14.40;99.90
14378;DHT22;7272;53.668;9.578;2023-09-30T02:01:33;14.40;99.90
14378;DHT22;7272;53.668;9.578;2023-09-30T02:04:34;14.40;99.90
14378;DHT22;7272;53.668;9.578;2023-09-30T02:07:36;14.30;99.90
14378;DHT22;7272;53.668;9.578;2023-09-30T02:10:38;14.30;99.90
14378;DHT22;7272;53.668;9.578;2023-09-30T02:13:40;14.30;99.90
14378;DHT22;7272;53.668;9.578;2023-09-30T02:16:41;14.30;99.90
14378;DHT22;7272;53.668;9.578;2023-09-30T02:19:42;14.30;99.90
14378;DHT22;7272;53.668;9.578;2023-09-30T02:22:45;14.30;99.90
14378;DHT22;7272;53.668;9.578;2023-09-30T02:25:47;14.30;99.90
14378;DHT22;7272;53.668;9.578;2023-09-30T02:28:48;14.30;99.90
14378;DHT22;7272;53.668;9.578;2023-09-30T02:31:49;14.20;99.90
14378;DHT22;7272;53.668;9.578;2023-09-30T02:34:50;14.20;99.90
14378;DHT22;7272;53.668;9.578;2023-09-30T02:37:52;14.30;99.90
14378;DHT22;7272;53.668;9.578;2023-09-30T02:40:54;14.20;99.90
14378;DHT22;7272;53.668;9.578;2023-09-30T02:43:57;14.30;99.90
14378;DHT22;7272;53.668;9.578;2023-09-30T02:46:58;14.40;99.90
14378;DHT22;7272;53.668;9.578;2023-09-30T02:49:59;14.30;99.90
14378;DHT22;7272;53.668;9.578;2023-09-30T02:53:01;14.20;99.90
14378;DHT22;7272;53.668;9.578;2023-09-30T02:56:03;14.20;99.90
14378;DHT22;7272;53.668;9.578;2023-09-30T02:59:05;14.20;99.90
14378;DHT22;7272;53.668;9.578;2023-09-30T03:02:07;14.20;99.90
14378;DHT22;7272;53.668;9.578;2023-09-30T03:05:09;14.20;99.90
14378;DHT22;7272;53.668;9.578;2023-09-30T03:08:11;14.20;99.90
14378;DHT22;7272;53.668;9.578;2023-09-30T03:11:12;14.20;99.90
14378;DHT22;7272;53.668;9.578;2023-09-30T03:14:14;14.20;99.90
14378;DHT22;7272;53.668;9.578;2023-09-30T03:17:15;14.20;99.90
14378;DHT22;7272;53.668;9.578;2023-09-30T03:20:16;14.20;99.90
14378;DHT22;7272;53.668;9.578;2023-09-30T03:23:21;14.20;99.90
14378;DHT22;7272;53.668;9.578;2023-09-30T03:26:22;14.10;99.90
14378;DHT22;7272;53.668;9.578;2023-09-30T03:29:24;14.10;99.90
14378;DHT22;7272;53.668;9.578;2023-09-30T03:32:27;14.20;99.90
14378;DHT22;7272;53.668;9.578;2023-09-30T03:35:28;14.20;99.90
14378;DHT22;7272;53.668;9.578;2023-09-30T03:38:31;14.20;99.90
14378;DHT22;7272;53.668;9.578;2023-09-30T03:41:33;14.10;99.90
14378;DHT22;7272;53.668;9.578;2023-09-30T03:44:35;14.10;99.90
14378;DHT22;7272;53.668;9.578;2023-09-30T03:47:37;14.10;99.90
14378;DHT22;7272;53.668;9.578;2023-09-30T03:50:39;14.10;99.90
14378;DHT22;7272;53.668;9.578;2023-09-30T03:53:41;14.10;99.90
14378;DHT22;7272;53.668;9.578;2023-09-30T03:56:42;14.10;99.90
14378;DHT22;7272;53.668;9.578;2023-09-30T03:59:44;14.10;99.90
14378;DHT22;7272;53.668;9.578;2023-09-30T04:02:46;14.10;99.90
14378;DHT22;7272;53.668;9.578;2023-09-30T04:05:50;14.10;99.90
14378;DHT22;7272;53.668;9.578;2023-09-30T04:08:52;14.00;99.90
14378;DHT22;7272;53.668;9.578;2023-09-30T04:11:53;14.00;99.90
14378;DHT22;7272;53.668;9.578;2023-09-30T04:14:54;13.90;99.90
14378;DHT22;7272;53.668;9.578;2023-09-30T04:17:55;13.90;99.90
14378;DHT22;7272;53.668;9.578;2023-09-30T04:20:56;13.90;99.90
14378;DHT22;7272;53.668;9.578;2023-09-30T04:23:58;13.90;99.90
14378;DHT22;7272;53.668;9.578;2023-09-30T04:26:59;13.90;99.90
14378;DHT22;7272;53.668;9.578;2023-09-30T04:30:04;13.90;99.90
14378;DHT22;7272;53.668;9.578;2023-09-30T04:33:09;13.90;99.90
14378;DHT22;7272;53.668;9.578;2023-09-30T04:36:12;13.90;99.90
14378;DHT22;7272;53.668;9.578;2023-09-30T04:39:15;13.90;99.90
14378;DHT22;7272;53.668;9.578;2023-09-30T04:42:16;13.90;99.90
14378;DHT22;7272;53.668;9.578;2023-09-30T04:45:18;14.00;99.90
14378;DHT22;7272;53.668;9.578;2023-09-30T04:48:20;14.00;99.90
14378;DHT22;7272;53.668;9.578;2023-09-30T04:51:22;14.00;99.90
14378;DHT22;7272;53.668;9.578;2023-09-30T04:54:26;14.00;99.90
14378;DHT22;7272;53.668;9.578;2023-09-30T04:57:30;14.00;99.90
14378;DHT22;7272;53.668;9.578;2023-09-30T05:00:32;14.00;99.90
14378;DHT22;7272;53.668;9.578;2023-09-30T05:03:34;14.00;99.90
14378;DHT22;7272;53.668;9.578;2023-09-30T05:06:35;13.90;99.90
14378;DHT22;7272;53.668;9.578;2023-09-30T05:09:37;14.00;99.90
14378;DHT22;7272;53.668;9.578;2023-09-30T05:12:39;13.90;99.90
14378;DHT22;7272;53.668;9.578;2023-09-30T05:15:41;13.90;99.90
14378;DHT22;7272;53.668;9.578;2023-09-30T05:18:42;13.90;99.90
14378;DHT22;7272;53.668;9.578;2023-09-30T05:21:44;13.90;99.90
14378;DHT22;7272;53.668;9.578;2023-09-30T05:24:46;13.90;99.90
14378;DHT22;7272;53.668;9.578;2023-09-30T05:27:47;13.90;99.90
14378;DHT22;7272;53.668;9.578;2023-09-30T05:30:48;13.90;99.90
14378;DHT22;7272;53.668;9.578;2023-09-30T05:33:51;13.90;99.90
14378;DHT22;7272;53.668;9.578;2023-09-30T05:36:52;13.90;99.90
14378;DHT22;7272;53.668;9.578;2023-09-30T05:39:54;14.00;99.90
14378;DHT22;7272;53.668;9.578;2023-09-30T05:42:56;14.00;99.90
14378;DHT22;7272;53.668;9.578;2023-09-30T05:45:58;14.00;99.90
14378;DHT22;7272;53.668;9.578;2023-09-30T05:49:00;14.00;99.90
14378;DHT22;7272;53.668;9.578;2023-09-30T05:52:02;14.00;99.90
14378;DHT22;7272;53.668;9.578;2023-09-30T05:55:04;14.00;99.90
14378;DHT22;7272;53.668;9.578;2023-09-30T05:58:05;14.00;99.90
14378;DHT22;7272;53.668;9.578;2023-09-30T06:01:07;14.00;99.90
14378;DHT22;7272;53.668;9.578;2023-09-30T06:04:11;14.00;99.90
14378;DHT22;7272;53.668;9.578;2023-09-30T06:07:12;14.00;99.90
14378;DHT22;7272;53.668;9.578;2023-09-30T06:10:15;14.00;99.90
14378;DHT22;7272;53.668;9.578;2023-09-30T06:13:19;14.00;99.90
14378;DHT22;7272;53.668;9.578;2023-09-30T06:16:21;14.00;99.90
14378;DHT22;7272;53.668;9.578;2023-09-30T06:19:23;14.00;99.90
14378;DHT22;7272;53.668;9.578;2023-09-30T06:22:26;14.00;99.90
14378;DHT22;7272;53.668;9.578;2023-09-30T06:25:29;14.00;99.90
14378;DHT22;7272;53.668;9.578;2023-09-30T06:28:31;14.00;99.90
14378;DHT22;7272;53.668;9.578;2023-09-30T06:31:32;14.20;99.90
14378;DHT22;7272;53.668;9.578;2023-09-30T06:34:34;14.20;99.90
14378;DHT22;7272;53.668;9.578;2023-09-30T06:37:35;14.20;99.90
14378;DHT22;7272;53.668;9.578;2023-09-30T06:40:37;14.20;99.90
14378;DHT22;7272;53.668;9.578;2023-09-30T06:43:43;14.20;99.90
14378;DHT22;7272;53.668;9.578;2023-09-30T06:46:44;14.30;99.90
14378;DHT22;7272;53.668;9.578;2023-09-30T06:49:45;14.30;99.90
14378;DHT22;7272;53.668;9.578;2023-09-30T06:52:47;14.30;99.90
14378;DHT22;7272;53.668;9.578;2023-09-30T06:55:50;14.50;99.90
14378;DHT22;7272;53.668;9.578;2023-09-30T06:58:52;14.60;99.90
14378;DHT22;7272;53.668;9.578;2023-09-30T07:01:53;14.70;99.90
14378;DHT22;7272;53.668;9.578;2023-09-30T07:04:55;14.70;99.90
14378;DHT22;7272;53.668;9.578;2023-09-30T07:07:56;14.80;99.90
14378;DHT22;7272;53.668;9.578;2023-09-30T07:10:58;14.80;99.90
14378;DHT22;7272;53.668;9.578;2023-09-30T07:14:01;14.80;99.90
14378;DHT22;7272;53.668;9.578;2023-09-30T07:17:02;14.90;99.90
14378;DHT22;7272;53.668;9.578;2023-09-30T07:20:06;15.00;99.90
14378;DHT22;7272;53.668;9.578;2023-09-30T07:23:07;15.20;99.90
14378;DHT22;7272;53.668;9.578;2023-09-30T07:26:10;15.40;99.90
14378;DHT22;7272;53.668;9.578;2023-09-30T07:29:11;15.40;99.90
14378;DHT22;7272;53.668;9.578;2023-09-30T07:32:12;15.50;99.90
14378;DHT22;7272;53.668;9.578;2023-09-30T07:35:13;15.50;99.90
14378;DHT22;7272;53.668;9.578;2023-09-30T07:38:16;15.60;99.90
14378;DHT22;7272;53.668;9.578;2023-09-30T07:41:17;15.70;99.90
14378;DHT22;7272;53.668;9.578;2023-09-30T07:44:19;15.80;99.90
14378;DHT22;7272;53.668;9.578;2023-09-30T07:47:20;16.10;99.90
14378;DHT22;7272;53.668;9.578;2023-09-30T07:50:22;16.30;99.90
14378;DHT22;7272;53.668;9.578;2023-09-30T07:53:23;16.40;99.90
14378;DHT22;7272;53.668;9.578;2023-09-30T07:56:25;16.60;99.90
14378;DHT22;7272;53.668;9.578;2023-09-30T07:59:26;16.70;99.90
14378;DHT22;7272;53.668;9.578;2023-09-30T08:02:28;16.90;99.90
14378;DHT22;7272;53.668;9.578;2023-09-30T08:05:33;17.00;99.90
14378;DHT22;7272;53.668;9.578;2023-09-30T08:08:35;17.10;99.90
14378;DHT22;7272;53.668;9.578;2023-09-30T08:11:37;17.20;99.90
14378;DHT22;7272;53.668;9.578;2023-09-30T08:14:38;17.20;99.90
14378;DHT22;7272;53.668;9.578;2023-09-30T08:17:39;17.30;99.90
14378;DHT22;7272;53.668;9.578;2023-09-30T08:20:41;17.50;99.90
14378;DHT22;7272;53.668;9.578;2023-09-30T08:23:42;17.50;99.90
14378;DHT22;7272;53.668;9.578;2023-09-30T08:26:45;17.50;99.90
14378;DHT22;7272;53.668;9.578;2023-09-30T08:29:46;17.40;99.90
14378;DHT22;7272;53.668;9.578;2023-09-30T08:32:48;17.40;99.90
14378;DHT22;7272;53.668;9.578;2023-09-30T08:35:49;17.40;99.90
14378;DHT22;7272;53.668;9.578;2023-09-30T08:38:50;17.40;99.90
14378;DHT22;7272;53.668;9.578;2023-09-30T08:41:53;17.50;99.90
14378;DHT22;7272;53.668;9.578;2023-09-30T08:44:55;17.50;99.90
14378;DHT22;7272;53.668;9.578;2023-09-30T08:47:57;17.60;99.90
14378;DHT22;7272;53.668;9.578;2023-09-30T08:51:02;17.60;99.90
14378;DHT22;7272;53.668;9.578;2023-09-30T08:54:04;17.60;99.90
14378;DHT22;7272;53.668;9.578;2023-09-30T08:57:08;17.60;99.90
14378;DHT22;7272;53.668;9.578;2023-09-30T09:00:11;17.70;99.90
14378;DHT22;7272;53.668;9.578;2023-09-30T09:03:13;17.80;99.90
14378;DHT22;7272;53.668;9.578;2023-09-30T09:06:14;17.80;99.90
14378;DHT22;7272;53.668;9.578;2023-09-30T09:09:16;18.00;99.90
14378;DHT22;7272;53.668;9.578;2023-09-30T09:12:20;18.10;99.90
14378;DHT22;7272;53.668;9.578;2023-09-30T09:15:24;18.20;99.90
14378;DHT22;7272;53.668;9.578;2023-09-30T09:18:31;18.30;99.90
14378;DHT22;7272;53.668;9.578;2023-09-30T09:21:33;18.30;99.90
14378;DHT22;7272;53.668;9.578;2023-09-30T09:24:35;18.50;99.90
14378;DHT22;7272;53.668;9.578;2023-09-30T09:27:39;18.50;99.90
14378;DHT22;7272;53.668;9.578;2023-09-30T09:30:40;18.50;99.90
14378;DHT22;7272;53.668;9.578;2023-09-30T09:33:41;18.60;99.90
14378;DHT22;7272;53.668;9.578;2023-09-30T09:36:44;18.80;99.90
14378;DHT22;7272;53.668;9.578;2023-09-30T09:39:51;18.90;99.90
14378;DHT22;7272;53.668;9.578;2023-09-30T09:42:54;18.90;99.90
14378;DHT22;7272;53.668;9.578;2023-09-30T09:45:56;18.90;99.90
14378;DHT22;7272;53.668;9.578;2023-09-30T09:48:58;18.80;99.90
14378;DHT22;7272;53.668;9.578;2023-09-30T09:52:01;18.80;99.90
14378;DHT22;7272;53.668;9.578;2023-09-30T09:55:03;19.00;99.90
14378;DHT22;7272;53.668;9.578;2023-09-30T09:58:07;19.00;99.90
14378;DHT22;7272;53.668;9.578;2023-09-30T10:01:10;19.20;99.90
14378;DHT22;7272;53.668;9.578;2023-09-30T10:04:11;19.20;99.90
14378;DHT22;7272;53.668;9.578;2023-09-30T10:07:18;19.20;99.90
14378;DHT22;7272;53.668;9.578;2023-09-30T10:10:21;19.30;99.90
14378;DHT22;7272;53.668;9.578;2023-09-30T10:13:52;19.30;99.90
14378;DHT22;7272;53.668;9.578;2023-09-30T10:16:53;19.40;99.90
14378;DHT22;7272;53.668;9.578;2023-09-30T10:20:05;19.50;99.90
14378;DHT22;7272;53.668;9.578;2023-09-30T10:23:21;19.70;99.90
14378;DHT22;7272;53.668;9.578;2023-09-30T10:26:23;19.80;99.90
14378;DHT22;7272;53.668;9.578;2023-09-30T10:29:39;19.90;99.90
14378;DHT22;7272;53.668;9.578;2023-09-30T10:33:09;19.90;99.90
14378;DHT22;7272;53.668;9.578;2023-09-30T10:36:11;20.00;99.90
14378;DHT22;7272;53.668;9.578;2023-09-30T10:39:13;20.00;99.90
14378;DHT22;7272;53.668;9.578;2023-09-30T10:42:45;20.00;99.90
14378;DHT22;7272;53.668;9.578;2023-09-30T10:45:47;20.20;99.90
14378;DHT22;7272;53.668;9.578;2023-09-30T10:48:49;20.50;99.90
14378;DHT22;7272;53.668;9.578;2023-09-30T10:51:51;20.50;99.90
14378;DHT22;7272;53.668;9.578;2023-09-30T10:54:52;20.60;99.90
14378;DHT22;7272;53.668;9.578;2023-09-30T10:57:54;20.50;99.90
14378;DHT22;7272;53.668;9.578;2023-09-30T11:00:56;20.60;99.90
14378;DHT22;7272;53.668;9.578;2023-09-30T11:03:59;20.80;99.90
14378;DHT22;7272;53.668;9.578;2023-09-30T11:07:04;20.80;99.90
14378;DHT22;7272;53.668;9.578;2023-09-30T11:10:06;20.80;99.90
14378;DHT22;7272;53.668;9.578;2023-09-30T11:13:07;20.70;99.90
14378;DHT22;7272;53.668;9.578;2023-09-30T11:16:09;20.70;99.90
14378;DHT22;7272;53.668;9.578;2023-09-30T11:19:10;20.60;99.90
14378;DHT22;7272;53.668;9.578;2023-09-30T11:22:12;20.60;99.90
14378;DHT22;7272;53.668;9.578;2023-09-30T11:25:17;20.70;99.90
14378;DHT22;7272;53.668;9.578;2023-09-30T11:28:18;21.00;99.90
14378;DHT22;7272;53.668;9.578;2023-09-30T11:31:21;21.20;99.90
14378;DHT22;7272;53.668;9.578;2023-09-30T11:34:31;21.20;99.90
14378;DHT22;7272;53.668;9.578;2023-09-30T11:37:34;21.20;99.90
14378;DHT22;7272;53.668;9.578;2023-09-30T11:40:35;21.00;99.90
14378;DHT22;7272;53.668;9.578;2023-09-30T11:43:36;21.00;99.90
14378;DHT22;7272;53.668;9.578;2023-09-30T11:46:48;20.90;99.90
14378;DHT22;7272;53.668;9.578;2023-09-30T11:49:53;21.00;99.90
14378;DHT22;7272;53.668;9.578;2023-09-30T11:52:55;21.20;99.90
14378;DHT22;7272;53.668;9.578;2023-09-30T11:55:56;21.00;99.90
14378;DHT22;7272;53.668;9.578;2023-09-30T11:58:59;20.70;99.90
14378;DHT22;7272;53.668;9.578;2023-09-30T12:02:01;20.70;99.90
14378;DHT22;7272;53.668;9.578;2023-09-30T12:05:02;20.90;99.90
14378;DHT22;7272;53.668;9.578;2023-09-30T12:08:04;20.90;99.90
14378;DHT22;7272;53.668;9.578;2023-09-30T12:11:05;21.00;99.90
14378;DHT22;7272;53.668;9.578;2023-09-30T12:14:06;21.10;99.90
14378;DHT22;7272;53.668;9.578;2023-09-30T12:17:09;21.20;99.90
14378;DHT22;7272;53.668;9.578;2023-09-30T12:20:11;21.40;99.90
14378;DHT22;7272;53.668;9.578;2023-09-30T12:23:15;21.30;99.90
14378;DHT22;7272;53.668;9.578;2023-09-30T12:26:18;20.90;99.90
14378;DHT22;7272;53.668;9.578;2023-09-30T12:29:21;20.60;99.90
14378;DHT22;7272;53.668;9.578;2023-09-30T12:32:23;20.30;99.90
14378;DHT22;7272;53.668;9.578;2023-09-30T12:35:24;20.20;99.90
14378;DHT22;7272;53.668;9.578;2023-09-30T12:38:26;20.30;99.90
14378;DHT22;7272;53.668;9.578;2023-09-30T12:41:28;20.20;99.90
14378;DHT22;7272;53.668;9.578;2023-09-30T12:44:30;20.20;99.90
14378;DHT22;7272;53.668;9.578;2023-09-30T12:47:32;20.20;99.90
14378;DHT22;7272;53.668;9.578;2023-09-30T12:50:33;20.20;99.90
14378;DHT22;7272;53.668;9.578;2023-09-30T12:53:34;20.20;99.90
14378;DHT22;7272;53.668;9.578;2023-09-30T12:56:35;20.20;99.90
14378;DHT22;7272;53.668;9.578;2023-09-30T12:59:36;20.30;99.90
14378;DHT22;7272;53.668;9.578;2023-09-30T13:02:38;20.40;99.90
14378;DHT22;7272;53.668;9.578;2023-09-30T13:05:40;20.50;99.90
14378;DHT22;7272;53.668;9.578;2023-09-30T13:08:41;20.80;99.90
14378;DHT22;7272;53.668;9.578;2023-09-30T13:11:42;20.80;99.90
14378;DHT22;7272;53.668;9.578;2023-09-30T13:14:44;20.80;99.90
14378;DHT22;7272;53.668;9.578;2023-09-30T13:17:46;20.90;99.90
14378;DHT22;7272;53.668;9.578;2023-09-30T13:20:47;20.90;99.90
14378;DHT22;7272;53.668;9.578;2023-09-30T13:23:48;20.90;99.90
14378;DHT22;7272;53.668;9.578;2023-09-30T13:26:49;20.90;99.90
14378;DHT22;7272;53.668;9.578;2023-09-30T13:29:53;20.60;99.90
14378;DHT22;7272;53.668;9.578;2023-09-30T13:32:56;20.30;99.90
14378;DHT22;7272;53.668;9.578;2023-09-30T13:35:57;20.10;99.90
14378;DHT22;7272;53.668;9.578;2023-09-30T13:38:58;20.00;99.90
14378;DHT22;7272;53.668;9.578;2023-09-30T13:41:59;20.10;99.90
14378;DHT22;7272;53.668;9.578;2023-09-30T13:45:01;20.10;99.90
14378;DHT22;7272;53.668;9.578;2023-09-30T13:48:03;19.90;99.90
14378;DHT22;7272;53.668;9.578;2023-09-30T13:51:05;19.70;99.90
14378;DHT22;7272;53.668;9.578;2023-09-30T13:54:07;19.60;99.90
14378;DHT22;7272;53.668;9.578;2023-09-30T13:57:08;19.60;99.90
14378;DHT22;7272;53.668;9.578;2023-09-30T14:00:10;19.50;99.90
14378;DHT22;7272;53.668;9.578;2023-09-30T14:03:12;19.50;99.90
14378;DHT22;7272;53.668;9.578;2023-09-30T14:06:14;19.60;99.90
14378;DHT22;7272;53.668;9.578;2023-09-30T14:09:15;19.50;99.90
14378;DHT22;7272;53.668;9.578;2023-09-30T14:12:16;19.60;99.90
14378;DHT22;7272;53.668;9.578;2023-09-30T14:15:18;19.70;99.90
14378;DHT22;7272;53.668;9.578;2023-09-30T14:18:19;19.80;99.90
14378;DHT22;7272;53.668;9.578;2023-09-30T14:21:21;19.90;99.90
14378;DHT22;7272;53.668;9.578;2023-09-30T14:24:22;19.90;99.90
14378;DHT22;7272;53.668;9.578;2023-09-30T14:27:23;20.00;99.90
14378;DHT22;7272;53.668;9.578;2023-09-30T14:30:26;19.90;99.90
14378;DHT22;7272;53.668;9.578;2023-09-30T14:33:28;19.80;99.90
14378;DHT22;7272;53.668;9.578;2023-09-30T14:36:29;19.70;99.90
14378;DHT22;7272;53.668;9.578;2023-09-30T14:39:32;19.50;99.90
14378;DHT22;7272;53.668;9.578;2023-09-30T14:42:34;19.50;99.90
14378;DHT22;7272;53.668;9.578;2023-09-30T14:45:37;19.40;99.90
14378;DHT22;7272;53.668;9.578;2023-09-30T14:48:39;19.50;99.90
14378;DHT22;7272;53.668;9.578;2023-09-30T14:51:42;19.40;99.90
14378;DHT22;7272;53.668;9.578;2023-09-30T14:54:44;19.20;99.90
14378;DHT22;7272;53.668;9.578;2023-09-30T14:57:46;19.20;99.90
14378;DHT22;7272;53.668;9.578;2023-09-30T15:00:47;19.10;99.90
14378;DHT22;7272;53.668;9.578;2023-09-30T15:03:49;19.10;99.90
14378;DHT22;7272;53.668;9.578;2023-09-30T15:06:50;19.00;99.90
14378;DHT22;7272;53.668;9.578;2023-09-30T15:09:51;19.00;99.90
14378;DHT22;7272;53.668;9.578;2023-09-30T15:12:55;18.90;99.90
14378;DHT22;7272;53.668;9.578;2023-09-30T15:15:56;18.90;99.90
14378;DHT22;7272;53.668;9.578;2023-09-30T15:18:58;18.80;99.90
14378;DHT22;7272;53.668;9.578;2023-09-30T15:21:59;18.90;99.90
14378;DHT22;7272;53.668;9.578;2023-09-30T15:25:00;18.80;99.90
14378;DHT22;7272;53.668;9.578;2023-09-30T15:28:02;18.80;99.90
14378;DHT22;7272;53.668;9.578;2023-09-30T15:31:03;18.80;99.90
14378;DHT22;7272;53.668;9.578;2023-09-30T15:34:06;18.80;99.90
14378;DHT22;7272;53.668;9.578;2023-09-30T15:37:08;18.80;99.90
14378;DHT22;7272;53.668;9.578;2023-09-30T15:40:09;18.70;99.90
14378;DHT22;7272;53.668;9.578;2023-09-30T15:43:10;18.60;99.90
14378;DHT22;7272;53.668;9.578;2023-09-30T15:46:12;18.60;99.90
14378;DHT22;7272;53.668;9.578;2023-09-30T15:49:15;18.50;99.90
14378;DHT22;7272;53.668;9.578;2023-09-30T15:52:17;18.40;99.90
14378;DHT22;7272;53.668;9.578;2023-09-30T15:55:18;18.40;99.90
14378;DHT22;7272;53.668;9.578;2023-09-30T15:58:20;18.40;99.90
14378;DHT22;7272;53.668;9.578;2023-09-30T16:01:21;18.40;99.90
14378;DHT22;7272;53.668;9.578;2023-09-30T16:04:23;18.40;99.90
14378;DHT22;7272;53.668;9.578;2023-09-30T16:07:24;18.30;99.90
14378;DHT22;7272;53.668;9.578;2023-09-30T16:10:26;18.30;99.90
14378;DHT22;7272;53.668;9.578;2023-09-30T16:13:29;18.20;99.90
14378;DHT22;7272;53.668;9.578;2023-09-30T16:16:30;18.20;99.90
14378;DHT22;7272;53.668;9.578;2023-09-30T16:19:32;18.20;99.90
14378;DHT22;7272;53.668;9.578;2023-09-30T16:22:34;18.20;99.90
14378;DHT22;7272;53.668;9.578;2023-09-30T16:25:35;18.10;99.90
14378;DHT22;7272;53.668;9.578;2023-09-30T16:28:36;18.00;99.90
14378;DHT22;7272;53.668;9.578;2023-09-30T16:31:37;17.90;99.90
14378;DHT22;7272;53.668;9.578;2023-09-30T16:34:39;17.80;99.90
14378;DHT22;7272;53.668;9.578;2023-09-30T16:37:41;17.80;99.90
14378;DHT22;7272;53.668;9.578;2023-09-30T16:40:46;17.90;99.90
14378;DHT22;7272;53.668;9.578;2023-09-30T16:43:47;17.80;99.90
14378;DHT22;7272;53.668;9.578;2023-09-30T16:46:48;17.70;99.90
14378;DHT22;7272;53.668;9.578;2023-09-30T16:49:50;17.60;99.90
14378;DHT22;7272;53.668;9.578;2023-09-30T16:52:51;17.60;99.90
14378;DHT22;7272;53.668;9.578;2023-09-30T16:55:53;17.60;99.90
14378;DHT22;7272;53.668;9.578;2023-09-30T16:58:54;17.60;99.90
14378;DHT22;7272;53.668;9.578;2023-09-30T17:01:55;17.50;99.90
14378;DHT22;7272;53.668;9.578;2023-09-30T17:04:57;17.50;99.90
14378;DHT22;7272;53.668;9.578;2023-09-30T17:08:03;17.50;99.90
14378;DHT22;7272;53.668;9.578;2023-09-30T17:11:06;17.50;99.90
14378;DHT22;7272;53.668;9.578;2023-09-30T17:14:08;17.40;99.90
14378;DHT22;7272;53.668;9.578;2023-09-30T17:17:09;17.50;99.90
14378;DHT22;7272;53.668;9.578;2023-09-30T17:20:11;17.50;99.90
14378;DHT22;7272;53.668;9.578;2023-09-30T17:23:14;17.50;99.90
14378;DHT22;7272;53.668;9.578;2023-09-30T17:26:15;17.40;99.90
14378;DHT22;7272;53.668;9.578;2023-09-30T17:29:16;17.30;99.90
14378;DHT22;7272;53.668;9.578;2023-09-30T17:32:18;17.20;99.90
14378;DHT22;7272;53.668;9.578;2023-09-30T17:35:22;17.20;99.90
14378;DHT22;7272;53.668;9.578;2023-09-30T17:38:23;17.20;99.90
14378;DHT22;7272;53.668;9.578;2023-09-30T17:41:24;17.20;99.90
14378;DHT22;7272;53.668;9.578;2023-09-30T17:44:26;17.20;99.90
14378;DHT22;7272;53.668;9.578;2023-09-30T17:47:27;17.10;99.90
14378;DHT22;7272;53.668;9.578;2023-09-30T17:50:28;17.00;99.90
14378;DHT22;7272;53.668;9.578;2023-09-30T17:53:30;17.00;99.90
14378;DHT22;7272;53.668;9.578;2023-09-30T17:56:31;16.90;99.90
14378;DHT22;7272;53.668;9.578;2023-09-30T17:59:32;17.00;99.90
14378;DHT22;7272;53.668;9.578;2023-09-30T18:02:33;16.90;99.90
14378;DHT22;7272;53.668;9.578;2023-09-30T18:05:35;16.90;99.90
14378;DHT22;7272;53.668;9.578;2023-09-30T18:08:37;16.90;99.90
14378;DHT22;7272;53.668;9.578;2023-09-30T18:11:38;16.90;99.90
14378;DHT22;7272;53.668;9.578;2023-09-30T18:14:40;16.90;99.90
14378;DHT22;7272;53.668;9.578;2023-09-30T18:17:41;16.90;99.90
14378;DHT22;7272;53.668;9.578;2023-09-30T18:20:43;17.00;99.90
14378;DHT22;7272;53.668;9.578;2023-09-30T18:23:44;17.00;99.90
14378;DHT22;7272;53.668;9.578;2023-09-30T18:26:45;17.00;99.90
14378;DHT22;7272;53.668;9.578;2023-09-30T18:29:46;16.90;99.90
14378;DHT22;7272;53.668;9.578;2023-09-30T18:32:47;16.90;99.90
14378;DHT22;7272;53.668;9.578;2023-09-30T18:35:49;16.90;99.90
14378;DHT22;7272;53.668;9.578;2023-09-30T18:38:50;17.00;99.90
14378;DHT22;7272;53.668;9.578;2023-09-30T18:41:52;17.20;99.90
14378;DHT22;7272;53.668;9.578;2023-09-30T18:44:53;17.10;99.90
14378;DHT22;7272;53.668;9.578;2023-09-30T18:47:54;17.00;99.90
14378;DHT22;7272;53.668;9.578;2023-09-30T18:50:56;17.10;99.90
14378;DHT22;7272;53.668;9.578;2023-09-30T18:53:57;17.00;99.90
14378;DHT22;7272;53.668;9.578;2023-09-30T18:56:58;17.00;99.90
14378;DHT22;7272;53.668;9.578;2023-09-30T19:00:00;17.20;99.90
14378;DHT22;7272;53.668;9.578;2023-09-30T19:03:01;17.40;99.90
14378;DHT22;7272;53.668;9.578;2023-09-30T19:06:04;17.40;99.90
14378;DHT22;7272;53.668;9.578;2023-09-30T19:09:05;17.30;99.90
14378;DHT22;7272;53.668;9.578;2023-09-30T19:12:07;17.20;99.90
14378;DHT22;7272;53.668;9.578;2023-09-30T19:15:10;17.20;99.90
14378;DHT22;7272;53.668;9.578;2023-09-30T19:18:11;17.20;99.90
14378;DHT22;7272;53.668;9.578;2023-09-30T19:21:13;17.20;99.90
14378;DHT22;7272;53.668;9.578;2023-09-30T19:24:15;17.20;99.90
14378;DHT22;7272;53.668;9.578;2023-09-30T19:27:16;17.20;99.90